Time;durP1;ratioP1;P1;durP2;ratioP2;P2;SDS_P1;SDS_P2;PMS_P1;PMS_P2;Temp;Humidity;BMP_temperature;BMP_pressure;BME280_temperature;BME280_humidity;BME280_pressure;Samples;Min_cycle;Max_cycle;Signal;HPM_P1;HPM_P2
2021/06/09 00:02:09;;;;;;;;;3.00;3.00;;;;;22.08;100.00;101960.16;5079079;28;45324;-75
2021/06/09 00:04:34;;;;;;;;;1.75;1.75;;;;;22.12;100.00;101965.28;5078442;28;46066;-71
2021/06/09 00:06:59;;;;;;;;;3.00;2.00;;;;;22.09;100.00;101968.06;5078424;28;45451;-71
2021/06/09 00:09:25;;;;;;;;;3.00;2.75;;;;;22.10;100.00;101975.13;5078574;28;45483;-71
2021/06/09 00:11:51;;;;;;;;;3.00;3.00;;;;;22.00;100.00;101955.13;5078682;28;45379;-71
2021/06/09 00:14:18;;;;;;;;;2.00;2.00;;;;;22.06;100.00;101972.66;5078331;28;47369;-71
2021/06/09 00:16:44;;;;;;;;;3.00;3.00;;;;;22.00;100.00;101974.63;5078091;28;45176;-71
2021/06/09 00:19:12;;;;;;;;;2.00;2.00;;;;;21.97;100.00;101973.91;5078355;28;45380;-71
2021/06/09 00:24:59;;;;;;;;;2.75;2.75;;;;;21.88;100.00;101972.47;5078231;28;45841;-71
2021/06/09 00:27:25;;;;;;;;;2.50;2.50;;;;;21.88;100.00;101982.22;5078057;28;45312;-70
2021/06/09 00:29:51;;;;;;;;;2.75;2.75;;;;;21.88;100.00;101979.56;5078207;28;45279;-69
2021/06/09 00:32:16;;;;;;;;;3.50;2.75;;;;;21.83;100.00;101974.47;5078664;28;45450;-70
2021/06/09 00:34:42;;;;;;;;;5.00;4.25;;;;;21.81;100.00;101970.13;5078057;28;46977;-70
2021/06/09 00:37:07;;;;;;;;;2.00;2.00;;;;;21.77;100.00;101969.41;5078213;28;45346;-71
2021/06/09 00:39:32;;;;;;;;;3.00;3.00;;;;;21.77;100.00;101973.84;5078303;28;45396;-70
2021/06/09 00:41:58;;;;;;;;;2.75;2.75;;;;;21.75;100.00;101975.72;5078209;28;45396;-71
2021/06/09 00:44:24;;;;;;;;;3.25;3.00;;;;;21.67;100.00;101963.56;5077735;28;46159;-70
2021/06/09 00:46:49;;;;;;;;;1.75;1.75;;;;;21.71;100.00;101975.81;5077881;28;45390;-70
2021/06/09 00:49:15;;;;;;;;;2.00;2.00;;;;;21.70;100.00;101978.53;5077952;28;45394;-70
2021/06/09 00:55:01;;;;;;;;;2.75;2.75;;;;;21.62;100.00;101973.53;5077668;28;45769;-72
2021/06/09 00:57:27;;;;;;;;;4.00;3.75;;;;;21.53;100.00;101955.31;5077623;28;45454;-71
2021/06/09 00:59:52;;;;;;;;;5.00;5.00;;;;;21.48;100.00;101951.09;5077591;28;45355;-70
2021/06/09 01:02:18;;;;;;;;;7.75;6.50;;;;;21.50;100.00;101957.22;5077881;28;45477;-71
2021/06/09 01:04:43;;;;;;;;;4.25;4.00;;;;;21.50;100.00;101963.41;5077721;28;46548;-71
2021/06/09 01:10:31;;;;;;;;;4.50;4.25;;;;;21.31;100.00;101939.38;5077619;28;45251;-72
2021/06/09 01:12:59;;;;;;;;;8.25;6.00;;;;;21.36;100.00;101949.81;5077868;28;45417;-70
2021/06/09 01:15:26;;;;;;;;;8.00;7.50;;;;;21.39;100.00;101955.88;5077292;28;46325;-70
2021/06/09 01:17:53;;;;;;;;;7.50;7.50;;;;;21.33;100.00;101953.47;5077755;28;45305;-70
2021/06/09 01:20:20;;;;;;;;;8.50;7.00;;;;;21.25;100.00;101949.34;5077635;28;45327;-70
2021/06/09 01:22:45;;;;;;;;;6.50;6.50;;;;;21.22;100.00;101950.31;5077682;28;45280;-71
2021/06/09 01:25:11;;;;;;;;;8.25;7.25;;;;;21.16;100.00;101944.38;5077226;28;45569;-71
2021/06/09 01:27:38;;;;;;;;;6.75;6.00;;;;;21.12;100.00;101945.44;5078260;28;45353;-71
2021/06/09 01:30:11;;;;;;;;;10.75;8.50;;;;;21.15;100.00;101954.16;5081006;28;45456;-71
2021/06/09 01:32:37;;;;;;;;;9.00;9.00;;;;;21.09;100.00;101957.91;5081208;28;45375;-70
2021/06/09 01:38:07;;;;;;;;;9.25;9.25;;;;;21.01;100.00;101954.66;5080834;28;45629;-71
2021/06/09 01:40:33;;;;;;;;;5.75;5.75;;;;;20.95;100.00;101949.59;5080708;28;45313;-71
2021/06/09 01:42:58;;;;;;;;;8.25;8.25;;;;;20.96;100.00;101951.31;5080865;28;45447;-72
2021/06/09 01:45:27;;;;;;;;;8.25;7.75;;;;;20.93;100.00;101958.53;5080895;28;46379;-72
2021/06/09 01:47:54;;;;;;;;;6.75;6.75;;;;;20.90;100.00;101951.56;5080327;28;45238;-72
2021/06/09 01:53:41;;;;;;;;;8.75;8.25;;;;;20.85;100.00;101960.63;5080830;28;45395;-71
2021/06/09 01:56:07;;;;;;;;;8.25;7.75;;;;;20.84;100.00;101957.13;5080711;28;46209;-72
2021/06/09 01:58:32;;;;;;;;;8.75;8.75;;;;;20.62;100.00;101927.84;5080527;28;45296;-71
2021/06/09 02:00:58;;;;;;;;;9.00;8.25;;;;;20.75;100.00;101941.50;5080753;28;45154;-71
2021/06/09 02:03:23;;;;;;;;;7.25;7.25;;;;;20.67;100.00;101933.84;5080655;28;45277;-71
2021/06/09 02:09:13;;;;;;;;;11.75;10.50;;;;;20.70;100.00;101951.44;5080347;28;45770;-70
2021/06/09 02:11:44;;;;;;;;;9.25;9.25;;;;;20.69;100.00;101952.38;5080759;28;45323;-71
2021/06/09 02:14:10;;;;;;;;;11.25;9.75;;;;;20.66;100.00;101942.75;5080636;28;45364;-74
2021/06/09 02:16:38;;;;;;;;;10.00;9.25;;;;;20.66;100.00;101944.53;5080116;28;46374;-71
2021/06/09 02:19:05;;;;;;;;;13.75;10.50;;;;;20.52;100.00;101929.09;5080403;28;45476;-70
2021/06/09 02:24:53;;;;;;;;;10.25;9.25;;;;;20.54;100.00;101944.97;5080400;28;45342;-71
2021/06/09 02:27:18;;;;;;;;;11.00;9.25;;;;;20.53;100.00;101951.19;5080017;28;46574;-71
2021/06/09 02:29:43;;;;;;;;;10.50;9.75;;;;;20.53;100.00;101956.50;5079955;28;45270;-71
2021/06/09 02:32:09;;;;;;;;;9.75;8.75;;;;;20.42;100.00;101947.16;5061922;28;45302;-71
2021/06/09 02:34:36;;;;;;;;;12.00;10.75;;;;;20.46;100.00;101956.72;5080588;28;45285;-71
2021/06/09 02:40:23;;;;;;;;;11.00;9.00;;;;;20.34;100.00;101945.63;5079805;28;45402;-72
2021/06/09 02:42:49;;;;;;;;;12.75;10.00;;;;;20.26;100.00;101945.06;5080042;28;45314;-71
2021/06/09 02:45:19;;;;;;;;;10.00;9.50;;;;;20.33;100.00;101955.38;5080438;28;45306;-71
2021/06/09 02:48:09;;;;;;;;;11.00;10.25;;;;;20.30;100.00;101949.31;5079715;28;47100;-71
2021/06/09 02:50:35;;;;;;;;;11.50;11.00;;;;;20.11;100.00;101926.09;5079186;28;45313;-72
2021/06/09 02:53:11;;;;;;;;;12.00;11.00;;;;;20.23;100.00;101951.34;5061558;28;45435;-71
2021/06/09 02:55:55;;;;;;;;;9.75;9.75;;;;;20.06;100.00;101924.53;5080048;28;45318;-71
2021/06/09 02:58:48;;;;;;;;;11.75;11.75;;;;;20.14;100.00;101949.00;5079852;28;46126;-71
2021/06/09 03:01:32;;;;;;;;;9.00;9.00;;;;;20.14;100.00;101949.88;5078373;28;45305;-71
2021/06/09 03:04:21;;;;;;;;;9.25;8.25;;;;;20.11;100.00;101959.72;5079585;28;45459;-71
2021/06/09 03:07:02;;;;;;;;;10.75;10.00;;;;;19.93;100.00;101944.44;5079624;28;45498;-71
2021/06/09 03:09:36;;;;;;;;;10.00;10.00;;;;;20.02;100.00;101958.25;5079215;28;47199;-71
2021/06/09 03:12:21;;;;;;;;;11.25;9.75;;;;;19.98;100.00;101959.28;5079455;28;45506;-71
2021/06/09 03:15:12;;;;;;;;;9.25;9.00;;;;;19.92;100.00;101948.88;5061374;28;45359;-71
2021/06/09 03:17:53;;;;;;;;;9.25;9.25;;;;;19.92;100.00;101959.50;5079737;28;45417;-71
2021/06/09 03:20:39;;;;;;;;;11.75;10.25;;;;;19.89;100.00;101955.13;5078978;28;47268;-71
2021/06/09 03:23:05;;;;;;;;;8.00;8.00;;;;;19.87;100.00;101951.66;5079155;28;45538;-71
2021/06/09 03:25:36;;;;;;;;;9.00;8.00;;;;;19.84;100.00;101950.91;5079112;28;45379;-72
2021/06/09 03:28:23;;;;;;;;;11.50;10.00;;;;;19.80;100.00;101960.75;5079211;28;45354;-71
2021/06/09 03:30:56;;;;;;;;;9.75;8.75;;;;;19.76;100.00;101958.25;5079134;28;46656;-71
2021/06/09 03:33:24;;;;;;;;;9.00;9.00;;;;;19.74;100.00;101965.41;5079025;28;45434;-71
2021/06/09 03:39:14;;;;;;;;;11.25;8.75;;;;;19.64;100.00;101956.88;5079093;28;45309;-71
2021/06/09 03:42:00;;;;;;;;;8.50;8.00;;;;;19.63;100.00;101965.72;5078655;28;46745;-74
2021/06/09 03:44:31;;;;;;;;;8.75;8.25;;;;;19.57;100.00;101969.44;5079079;28;45498;-71
2021/06/09 03:46:57;;;;;;;;;8.50;8.25;;;;;19.47;100.00;101954.75;5078865;28;45435;-72
2021/06/09 03:49:24;;;;;;;;;8.75;8.75;;;;;19.48;100.00;101966.22;5079161;28;45340;-71
2021/06/09 03:55:13;;;;;;;;;7.75;7.50;;;;;19.43;100.00;101962.81;5078686;28;45420;-71
2021/06/09 03:57:39;;;;;;;;;10.75;8.75;;;;;19.37;100.00;101957.72;5078831;28;45234;-71
2021/06/09 04:00:06;;;;;;;;;7.75;7.75;;;;;19.41;100.00;101964.66;5078927;28;45382;-72
2021/06/09 04:02:32;;;;;;;;;8.00;8.00;;;;;19.37;100.00;101961.22;5078079;28;46428;-72
2021/06/09 04:04:58;;;;;;;;;8.75;8.00;;;;;19.42;100.00;101961.09;5078466;28;45402;-71
2021/06/09 04:10:47;;;;;;;;;8.00;7.00;;;;;19.36;100.00;101959.50;5078858;28;45234;-72
2021/06/09 04:13:14;;;;;;;;;9.00;8.00;;;;;19.37;100.00;101961.22;5078237;28;45591;-71
2021/06/09 04:15:41;;;;;;;;;9.75;8.75;;;;;19.37;100.00;101957.72;5078620;28;45492;-71
2021/06/09 04:18:08;;;;;;;;;7.25;7.25;;;;;19.31;100.00;101952.63;5078751;28;45423;-72
2021/06/09 04:20:35;;;;;;;;;9.00;9.00;;;;;19.36;100.00;101961.28;5078346;28;45224;-71
2021/06/09 04:26:23;;;;;;;;;7.25;7.25;;;;;19.34;100.00;101958.69;5078060;28;45295;-72
2021/06/09 04:28:49;;;;;;;;;11.00;10.00;;;;;19.28;100.00;101946.50;5077993;28;45321;-71
2021/06/09 04:31:16;;;;;;;;;8.00;8.00;;;;;19.31;100.00;101958.78;5078444;28;45370;-73
2021/06/09 04:33:49;;;;;;;;;9.00;8.75;;;;;19.26;100.00;101953.63;5077887;28;47181;-71
2021/06/09 04:36:16;;;;;;;;;8.75;8.50;;;;;19.27;100.00;101967.75;5077843;28;45230;-72
2021/06/09 04:38:42;;;;;;;;;4.25;4.00;;;;;19.22;100.00;101967.00;5077911;28;45295;-73
2021/06/09 04:41:09;;;;;;;;;8.50;8.00;;;;;19.25;100.00;101969.56;5078132;28;45372;-73
2021/06/09 04:43:35;;;;;;;;;11.75;10.25;;;;;19.24;100.00;101970.50;5078156;28;45768;-72
2021/06/09 04:46:01;;;;;;;;;9.00;8.75;;;;;19.21;100.00;101970.56;5077861;28;45863;-75
2021/06/09 04:48:26;;;;;;;;;7.50;7.25;;;;;19.17;100.00;101969.78;5078060;28;45407;-74
2021/06/09 04:50:52;;;;;;;;;7.00;7.00;;;;;19.17;100.00;101969.78;5078127;28;45369;-73
2021/06/09 04:56:39;;;;;;;;;8.00;8.00;;;;;19.21;100.00;101976.72;5077778;28;45289;-72
2021/06/09 04:59:07;;;;;;;;;7.75;7.00;;;;;19.25;100.00;101983.69;5078236;28;45277;-77
2021/06/09 05:01:36;;;;;;;;;10.25;8.50;;;;;19.27;100.00;101979.19;5077249;28;45339;-73
2021/06/09 05:04:02;;;;;;;;;9.00;8.75;;;;;19.20;100.00;101961.75;5077307;28;45337;-73
2021/06/09 05:06:27;;;;;;;;;8.25;8.00;;;;;19.20;100.00;101969.69;5077383;28;45383;-72
2021/06/09 05:08:54;;;;;;;;;10.25;10.00;;;;;19.33;100.00;101982.56;5077926;28;45344;-73
2021/06/09 05:11:28;;;;;;;;;10.00;9.25;;;;;19.31;100.00;101968.50;5077677;28;45535;-74
2021/06/09 05:13:56;;;;;;;;;8.75;8.00;;;;;19.37;100.00;101984.19;5077652;28;46241;-74
2021/06/09 05:16:24;;;;;;;;;8.75;8.75;;;;;19.27;100.00;101955.38;5077341;28;45679;-73
2021/06/09 05:18:54;;;;;;;;;8.50;7.50;;;;;19.44;100.00;101973.34;5077615;28;45233;-73
2021/06/09 05:21:25;;;;;;;;;15.75;15.50;;;;;19.46;100.00;101971.56;5077541;28;45371;-74
2021/06/09 05:23:53;;;;;;;;;9.00;8.75;;;;;19.55;100.00;101970.41;5077248;28;45589;-72
2021/06/09 05:26:20;;;;;;;;;5.00;4.00;;;;;19.62;100.00;101977.25;5077288;28;45369;-75
2021/06/09 05:28:54;;;;;;;;;9.00;8.00;;;;;19.71;100.00;101978.75;5077242;28;45359;-77
2021/06/09 05:31:20;;;;;;;;;8.50;7.00;;;;;19.65;100.00;101960.38;5077477;28;45419;-75
2021/06/09 05:33:46;;;;;;;;;9.25;9.00;;;;;19.85;100.00;101979.16;5077264;28;45555;-71
2021/06/09 05:36:13;;;;;;;;;10.00;9.25;;;;;19.92;100.00;101986.00;5077143;28;45305;-73
2021/06/09 05:42:00;;;;;;;;;8.25;8.00;;;;;20.04;100.00;101979.41;5077293;28;45431;-72
2021/06/09 05:44:29;;;;;;;;;9.75;9.75;;;;;20.03;100.00;101972.38;5077032;28;47294;-72
2021/06/09 05:46:58;;;;;;;;;10.00;10.00;;;;;20.11;100.00;101984.44;5076933;28;45276;-72
2021/06/09 05:49:24;;;;;;;;;10.50;10.50;;;;;20.12;100.00;101980.00;5077184;28;45407;-72
2021/06/09 05:51:50;;;;;;;;;11.25;10.50;;;;;20.15;100.00;101990.53;5077306;28;45417;-73
2021/06/09 05:54:17;;;;;;;;;12.00;10.00;;;;;20.14;100.00;101973.75;5076580;28;46380;-74
2021/06/09 05:56:43;;;;;;;;;11.75;9.25;;;;;20.21;100.00;101976.19;5077071;28;45562;-74
2021/06/09 05:59:11;;;;;;;;;8.00;7.75;;;;;20.29;100.00;101974.13;5077144;28;45297;-73
2021/06/09 06:01:37;;;;;;;;;9.50;9.50;;;;;20.28;100.00;101967.94;5077225;28;45389;-73
2021/06/09 06:04:03;;;;;;;;;7.50;6.50;;;;;20.32;100.00;101966.06;5077006;28;46266;-73
2021/06/09 06:06:30;;;;;;;;;8.25;7.50;;;;;20.44;100.00;101977.13;5076547;28;45333;-73
2021/06/09 06:12:18;;;;;;;;;9.50;9.00;;;;;20.54;100.00;101979.44;5076890;28;45298;-73
2021/06/09 06:14:44;;;;;;;;;8.25;7.75;;;;;20.59;100.00;101977.50;5079159;28;47091;-73
2021/06/09 06:17:09;;;;;;;;;10.00;10.00;;;;;20.66;100.00;101976.38;5061910;28;45729;-73
2021/06/09 06:19:37;;;;;;;;;12.25;11.25;;;;;20.74;100.00;101971.63;5080462;28;45370;-73
2021/06/09 06:22:11;;;;;;;;;11.25;11.25;;;;;20.83;100.00;101976.63;5080319;28;45408;-73
2021/06/09 06:24:42;;;;;;;;;13.00;12.50;;;;;20.94;100.00;101981.53;5079759;28;47176;-73
2021/06/09 06:27:08;;;;;;;;;11.25;10.75;;;;;20.98;100.00;101973.38;5079523;28;45423;-74
2021/06/09 06:29:36;;;;;;;;;13.50;12.50;;;;;21.09;100.00;101986.25;5079876;28;45351;-73
2021/06/09 06:32:05;;;;;;;;;14.00;13.50;;;;;21.14;100.00;101978.97;5080281;28;45368;-73
2021/06/09 06:34:31;;;;;;;;;13.50;12.00;;;;;21.19;100.00;101969.03;5061484;28;47302;-74
2021/06/09 06:36:58;;;;;;;;;17.50;14.50;;;;;21.25;100.00;101966.16;5080023;28;45733;-73
2021/06/09 06:39:24;;;;;;;;;14.75;14.25;;;;;21.32;100.00;101965.00;5079768;28;45344;-72
2021/06/09 06:41:51;;;;;;;;;18.00;15.50;;;;;21.42;100.00;101975.25;5061641;28;45526;-74
2021/06/09 06:44:16;;;;;;;;;17.00;16.25;;;;;21.46;100.00;101971.56;5079978;28;46590;-73
2021/06/09 06:46:49;;;;;;;;;22.25;20.50;;;;;21.51;100.00;101969.59;5079503;28;45301;-73
2021/06/09 06:49:17;;;;;;;;;16.25;15.00;;;;;21.58;100.00;101982.56;5079611;28;45517;-73
2021/06/09 06:51:44;;;;;;;;;18.25;17.25;;;;;21.68;100.00;101975.94;5079795;28;45233;-73
2021/06/09 06:57:32;;;;;;;;;22.50;19.25;;;;;21.77;100.00;101971.19;5079258;28;45707;-75
2021/06/09 06:59:59;;;;;;;;;25.00;23.00;;;;;21.89;100.00;101987.50;5079692;28;45293;-75
2021/06/09 07:02:25;;;;;;;;;24.75;23.75;;;;;21.88;100.00;101988.41;5079748;28;45332;-75
2021/06/09 07:04:51;;;;;;;;;28.50;26.50;;;;;21.98;100.00;101986.25;5079331;28;45243;-74
2021/06/09 07:07:17;;;;;;;;;27.50;24.75;;;;;21.97;100.00;101977.41;5079633;28;45340;-75
2021/06/09 07:09:44;;;;;;;;;28.50;24.50;;;;;22.04;100.00;101979.81;5079462;28;45301;-74
2021/06/09 07:12:10;;;;;;;;;22.75;22.25;;;;;22.05;100.00;101979.78;5079424;28;45412;-74
2021/06/09 07:14:36;;;;;;;;;25.50;25.00;;;;;22.18;100.00;101988.06;5079279;28;46563;-75
2021/06/09 07:17:02;;;;;;;;;32.75;30.75;;;;;22.17;100.00;101971.25;5079393;28;45683;-75
2021/06/09 07:19:27;;;;;;;;;29.75;27.75;;;;;22.30;100.00;101979.59;5079250;28;45345;-75
2021/06/09 07:21:54;;;;;;;;;28.25;26.50;;;;;22.38;100.00;101987.22;5079105;28;45330;-75
2021/06/09 07:27:45;;;;;;;;;34.25;30.00;;;;;22.47;100.00;101973.53;5078669;28;45411;-75
2021/06/09 07:30:14;;;;;;;;;32.00;28.00;;;;;22.50;100.00;101979.59;5079174;28;45412;-74
2021/06/09 07:32:44;;;;;;;;;32.25;29.25;;;;;22.62;100.00;101986.13;5078973;28;45335;-76
2021/06/09 07:35:11;;;;;;;;;29.00;26.75;;;;;22.64;100.00;101988.75;5078432;28;46629;-75
2021/06/09 07:37:42;;;;;;;;;32.25;30.25;;;;;22.58;100.00;101964.13;5078804;28;45308;-76
2021/06/09 07:40:11;;;;;;;;;36.50;31.00;;;;;22.77;100.00;101977.47;5078868;28;45268;-75
2021/06/09 07:42:37;;;;;;;;;41.00;33.50;;;;;22.90;100.00;101988.47;5079129;28;45269;-76
2021/06/09 07:45:09;;;;;;;;;36.25;30.00;;;;;22.89;100.00;101973.44;5060140;28;46128;-74
2021/06/09 07:47:35;;;;;;;;;35.75;30.50;;;;;23.03;100.00;101986.97;5060285;28;45372;-75
2021/06/09 07:50:06;;;;;;;;;32.50;30.50;;;;;23.11;100.00;101992.81;5078652;28;45304;-75
2021/06/09 07:52:32;;;;;;;;;36.00;32.25;;;;;23.15;100.00;101981.06;5078896;28;45301;-75
2021/06/09 07:54:58;;;;;;;;;36.25;32.00;;;;;23.23;100.00;101973.56;5078464;28;45572;-76
2021/06/09 07:57:29;;;;;;;;;39.50;32.50;;;;;23.35;100.00;101987.25;5078722;28;45528;-76
2021/06/09 07:59:55;;;;;;;;;36.00;30.75;;;;;23.36;100.00;101973.00;5060257;28;45348;-75
2021/06/09 08:02:21;;;;;;;;;36.50;32.25;;;;;23.44;100.00;101976.16;5078896;28;45342;-76
2021/06/09 08:04:47;;;;;;;;;32.50;30.00;;;;;23.49;100.00;101974.97;5078249;28;47403;-76
2021/06/09 08:07:13;;;;;;;;;30.75;28.00;;;;;23.60;100.00;101982.50;5078220;28;45276;-75
2021/06/09 08:09:39;;;;;;;;;29.50;26.75;;;;;23.66;100.00;101986.66;5078843;28;45330;-75
2021/06/09 08:12:06;;;;;;;;;32.00;27.50;;;;;23.72;100.00;101989.03;5078794;28;45384;-75
2021/06/09 08:14:33;;;;;;;;;29.25;28.50;;;;;23.72;100.00;101970.34;5078335;28;46480;-75
2021/06/09 08:16:58;;;;;;;;;27.25;24.50;;;;;23.87;100.00;101993.59;5078436;28;45785;-75
2021/06/09 08:19:24;;;;;;;;;33.75;29.50;;;;;23.89;100.00;101980.19;5078492;28;45372;-76
2021/06/09 08:21:50;;;;;;;;;24.00;22.50;;;;;23.98;100.00;101982.38;5078508;28;45351;-75
2021/06/09 08:27:37;;;;;;;;;22.00;20.75;;;;;24.20;100.00;101980.34;5077923;28;45472;-75
2021/06/09 08:30:04;;;;;;;;;28.25;26.75;;;;;24.27;100.00;101978.25;5078073;28;45547;-75
2021/06/09 08:32:29;;;;;;;;;27.75;26.50;;;;;24.33;100.00;101981.47;5078014;28;45551;-75
2021/06/09 08:34:54;;;;;;;;;25.25;24.00;;;;;24.39;100.00;101990.97;5059528;28;47464;-75
2021/06/09 08:37:20;;;;;;;;;27.00;24.75;;;;;24.42;100.00;101969.44;5059280;28;45504;-75
2021/06/09 08:39:45;;;;;;;;;28.00;24.50;;;;;24.57;100.00;101979.31;5077801;28;45471;-76
2021/06/09 08:42:12;;;;;;;;;22.00;21.25;;;;;24.64;100.00;101975.38;5078341;28;45475;-76
2021/06/09 08:44:41;;;;;;;;;22.00;19.25;;;;;24.79;100.00;101978.19;5077856;28;45561;-76
2021/06/09 08:47:09;;;;;;;;;19.25;18.25;;;;;24.94;100.00;101977.34;5078011;28;45305;-76
2021/06/09 08:49:34;;;;;;;;;20.50;19.00;;;;;25.08;100.00;101971.25;5077923;28;45401;-74
2021/06/09 08:52:01;;;;;;;;;18.25;17.50;;;;;25.28;100.00;101976.38;5077832;28;45440;-74
2021/06/09 08:57:49;;;;;;;;;16.50;16.00;;;;;25.56;100.00;101973.84;5077579;28;45348;-76
2021/06/09 09:00:17;;;;;;;;;13.25;12.75;;;;;25.68;100.00;101972.31;5077585;28;45469;-75
2021/06/09 09:02:43;;;;;;;;;14.00;13.00;;;;;25.85;100.00;101984.72;5078040;28;45283;-74
2021/06/09 09:05:10;;;;;;;;;10.75;10.50;;;;;25.97;100.00;101967.94;5077406;28;47490;-75
2021/06/09 09:07:36;;;;;;;;;20.25;17.75;;;;;26.13;100.00;101971.41;5077468;28;45301;-74
2021/06/09 09:10:05;;;;;;;;;28.75;28.00;;;;;26.32;100.00;101978.34;5077375;28;45312;-75
2021/06/09 09:12:33;;;;;;;;;11.00;10.00;;;;;26.50;100.00;101980.81;5077359;28;45400;-75
2021/06/09 09:14:59;;;;;;;;;9.00;7.75;;;;;26.55;100.00;101969.81;5076840;28;45822;-75
2021/06/09 09:17:25;;;;;;;;;8.75;8.00;;;;;26.76;100.00;101981.88;5077076;28;45274;-75
2021/06/09 09:19:51;;;;;;;;;12.50;9.75;;;;;26.90;100.00;101980.13;5077353;28;45292;-76
2021/06/09 09:28:37;;;;;;;;;11.25;10.25;;;;;27.32;100.00;101981.91;5076925;28;45280;-75
2021/06/09 09:31:09;;;;;;;;;11.25;11.00;;;;;27.50;100.00;101986.09;5077274;28;45275;-75
2021/06/09 09:33:35;;;;;;;;;9.50;9.25;;;;;27.63;100.00;101988.88;5077347;28;45325;-75
2021/06/09 09:36:29;;;;;;;;;6.75;6.75;;;;;27.73;100.00;101988.13;5076000;28;46226;-74
2021/06/09 09:38:56;;;;;;;;;7.00;6.00;;;;;27.96;100.00;101991.09;5076902;28;45369;-75
2021/06/09 09:41:22;;;;;;;;;7.75;7.00;;;;;28.13;100.00;101992.66;5076816;28;45442;-75
2021/06/09 09:43:53;;;;;;;;;6.75;6.00;;;;;28.24;100.00;101993.63;5077536;28;45543;-76
2021/06/09 09:46:22;;;;;;;;;6.00;5.00;;;;;28.31;100.00;101980.69;5076884;28;46491;-75
2021/06/09 09:49:07;;;;;;;;;6.00;5.50;;;;;28.63;100.00;101994.53;5078427;28;45489;-75
2021/06/09 09:51:36;;;;;;;;;6.00;5.00;;;;;28.93;100.00;101992.38;5080890;28;45387;-74
2021/06/09 09:54:06;;;;;;;;;4.00;3.75;;;;;29.30;100.00;101989.72;5080694;28;45359;-74
2021/06/09 09:56:37;;;;;;;;;4.00;4.00;;;;;29.70;100.00;101987.66;5080424;28;46327;-74
2021/06/09 09:59:11;;;;;;;;;6.25;6.00;;;;;30.18;100.00;101982.25;5080588;28;45586;-76
2021/06/09 10:01:39;;;;;;;;;3.50;3.50;;;;;30.74;99.80;101977.81;5080343;28;45481;-75
2021/06/09 10:04:07;;;;;;;;;4.00;3.50;;;;;31.55;97.66;101979.31;5080981;28;45313;-74
2021/06/09 10:06:40;;;;;;;;;3.25;3.00;;;;;32.47;90.90;101971.50;5080233;28;47414;-75
2021/06/09 10:09:14;;;;;;;;;4.75;4.50;;;;;33.69;86.50;101976.75;5080452;28;45380;-75
2021/06/09 10:12:18;;;;;;;;;4.00;4.00;;;;;35.06;77.85;101979.03;5080457;28;45353;-74
2021/06/09 10:14:47;;;;;;;;;4.00;4.00;;;;;36.68;70.58;101975.09;4978528;28;45391;-75
2021/06/09 10:17:33;;;;;;;;;4.75;3.75;;;;;37.95;64.44;101975.78;4978323;28;46712;-75
2021/06/09 10:20:00;;;;;;;;;3.25;3.00;;;;;38.84;59.32;101977.50;4978183;28;45438;-74
2021/06/09 10:22:32;;;;;;;;;3.75;3.75;;;;;38.89;54.99;101985.16;4978214;28;45414;-75
2021/06/09 10:24:58;;;;;;;;;2.00;2.00;;;;;38.09;53.94;101990.63;4978657;28;45369;-75
2021/06/09 10:27:47;;;;;;;;;3.00;3.00;;;;;37.08;56.47;101976.28;4977944;28;45745;-75
2021/06/09 10:30:19;;;;;;;;;4.00;3.75;;;;;36.33;56.88;101983.38;4978320;28;45495;-76
2021/06/09 10:32:51;;;;;;;;;3.00;3.00;;;;;35.86;58.83;101989.13;4978210;28;45525;-76
2021/06/09 10:35:19;;;;;;;;;2.75;2.75;;;;;35.98;59.51;101978.84;4978485;28;45296;-75
2021/06/09 10:37:49;;;;;;;;;2.50;2.25;;;;;36.89;57.19;101982.00;4961616;28;48504;-74
2021/06/09 10:40:16;;;;;;;;;3.50;3.00;;;;;37.72;53.68;101985.69;4977937;28;45320;-75
2021/06/09 10:42:43;;;;;;;;;5.00;4.00;;;;;38.01;51.06;101979.69;4977868;28;45333;-74
2021/06/09 10:45:10;;;;;;;;;4.25;3.25;;;;;38.41;52.20;101975.25;4978104;28;45378;-75
2021/06/09 10:47:37;;;;;;;;;3.50;3.50;;;;;39.11;46.35;101984.41;4977503;28;47339;-74
2021/06/09 10:50:07;;;;;;;;;2.50;2.50;;;;;39.55;45.27;101980.22;4983002;28;45441;-74
2021/06/09 10:52:33;;;;;;;;;4.00;4.00;;;;;39.73;45.48;101976.16;5079906;28;45356;-74
2021/06/09 10:55:02;;;;;;;;;3.25;3.00;;;;;39.89;44.20;101988.88;5079612;28;45372;-73
2021/06/09 10:57:28;;;;;;;;;4.25;3.75;;;;;40.01;41.63;101986.53;5079850;28;45375;-73
2021/06/09 10:59:53;;;;;;;;;3.50;3.00;;;;;39.99;40.36;101972.19;5078114;28;45360;-74
2021/06/09 11:02:21;;;;;;;;;4.00;4.00;;;;;40.04;41.52;101977.97;5079365;28;45238;-73
2021/06/09 11:04:49;;;;;;;;;5.50;5.00;;;;;39.92;42.92;101973.97;5079566;28;45357;-73
2021/06/09 11:07:33;;;;;;;;;3.00;3.00;;;;;39.91;40.29;101980.47;5079434;28;45395;-74
2021/06/09 11:10:04;;;;;;;;;4.00;4.00;;;;;39.53;41.56;101969.47;5079277;28;45448;-73
2021/06/09 11:12:37;;;;;;;;;22.75;22.25;;;;;39.18;41.13;101976.38;5078697;28;45358;-74
2021/06/09 11:15:08;;;;;;;;;4.00;4.00;;;;;38.79;42.38;101962.69;5079804;28;45486;-73
2021/06/09 11:17:33;;;;;;;;;5.00;4.00;;;;;38.39;40.03;101961.78;5079313;28;45778;-73
2021/06/09 11:20:13;;;;;;;;;5.50;5.00;;;;;38.01;42.30;101963.34;5079104;28;45376;-74
2021/06/09 11:22:42;;;;;;;;;5.00;4.50;;;;;37.86;42.32;101959.63;5079166;28;45364;-73
2021/06/09 11:25:28;;;;;;;;;5.50;4.75;;;;;37.70;43.35;101954.97;5079088;28;45372;-73
2021/06/09 11:28:05;;;;;;;;;4.50;4.50;;;;;37.74;45.29;101959.09;5078221;28;46503;-73
2021/06/09 11:30:30;;;;;;;;;5.00;5.00;;;;;37.78;43.68;101957.72;5079159;28;45560;-74
2021/06/09 11:32:58;;;;;;;;;4.00;4.00;;;;;37.82;45.15;101952.81;5060714;28;45358;-73
2021/06/09 11:35:41;;;;;;;;;4.00;4.00;;;;;38.00;44.29;101951.56;5079450;28;45320;-73
2021/06/09 11:41:44;;;;;;;;;4.75;4.75;;;;;38.52;41.48;101950.31;5078650;28;45368;-75
2021/06/09 11:44:39;;;;;;;;;3.25;3.25;;;;;38.69;42.86;101942.91;5078926;28;45294;-74
2021/06/09 11:47:25;;;;;;;;;5.00;5.00;;;;;39.13;41.91;101945.97;5079249;28;45360;-74
2021/06/09 11:49:54;;;;;;;;;5.50;5.00;;;;;39.61;42.83;101949.41;5078815;28;46562;-74
2021/06/09 11:52:20;;;;;;;;;4.00;4.00;;;;;40.14;41.59;101942.13;5078968;28;45411;-73
2021/06/09 11:58:08;;;;;;;;;4.00;4.00;;;;;40.50;36.50;101942.25;5078659;28;45272;-73
2021/06/09 12:00:34;;;;;;;;;6.00;4.75;;;;;40.49;35.85;101937.81;5078401;28;45364;-73
2021/06/09 12:03:21;;;;;;;;;4.00;4.00;;;;;40.53;36.61;101937.28;5078420;28;45367;-73
2021/06/09 12:05:47;;;;;;;;;5.25;5.25;;;;;40.60;34.76;101929.13;5078564;28;45348;-73
2021/06/09 12:08:13;;;;;;;;;4.25;4.25;;;;;40.56;35.31;101925.09;5078718;28;45273;-73
2021/06/09 12:14:20;;;;;;;;;5.00;4.00;;;;;40.69;35.95;101930.72;5078378;28;45295;-74
2021/06/09 12:16:46;;;;;;;;;3.75;3.75;;;;;40.69;37.54;101928.81;5078689;28;45435;-74
2021/06/09 12:19:32;;;;;;;;;5.50;4.75;;;;;40.80;38.06;101919.28;5078177;28;45478;-74
2021/06/09 12:22:19;;;;;;;;;5.00;5.00;;;;;41.00;36.66;101925.88;5078261;28;45433;-73
2021/06/09 12:25:18;;;;;;;;;5.00;5.00;;;;;41.27;34.49;101923.44;5078034;28;45383;-73
2021/06/09 12:27:58;;;;;;;;;4.75;4.75;;;;;41.14;33.66;101928.75;4995753;28;45433;-73
2021/06/09 12:30:24;;;;;;;;;4.50;3.50;;;;;40.96;33.87;101921.81;4996171;28;45342;-73
2021/06/09 12:32:50;;;;;;;;;5.75;5.00;;;;;40.99;33.85;101918.69;4995730;28;45379;-73
2021/06/09 12:35:18;;;;;;;;;6.00;6.00;;;;;41.11;33.36;101921.75;4995512;28;45363;-73
2021/06/09 12:37:53;;;;;;;;;4.00;4.00;;;;;41.21;33.13;101918.72;4995625;28;45470;-73
2021/06/09 12:40:23;;;;;;;;;5.00;5.00;;;;;41.06;32.64;101915.19;4995926;28;45458;-72
2021/06/09 12:42:53;;;;;;;;;6.00;5.00;;;;;41.05;32.90;101917.06;4978846;28;48103;-73
2021/06/09 12:45:20;;;;;;;;;5.00;5.00;;;;;40.96;31.33;101915.47;4978792;28;45605;-73